Kawito Airport


Codes: PG-KWO/KWO
Name: Kawito Airport
City: Kawito
Country: Papua New Guinea
Elevation: 72 ft.

Photos at Kawito Airport


   Photos courtesy of SpottingLog. You can add your own sightings and photos by signing up for a free trial today.



No photos found.

Weather at Kawito Airport


Time (UTC)DescriptionTempratureWindCloud coverageVisibilityPressureHumidity
19-Apr-2024 06:00Broken Clouds34°C4 mph, NW84%10000m1004hPa53%
19-Apr-2024 09:00Light Rain30°C2 mph, W91%10000m1006hPa77%
19-Apr-2024 12:00Moderate Rain25°C2 mph, E97%3350m1009hPa98%
19-Apr-2024 15:00Moderate Rain24°C2 mph, NE100%4511m1008hPa99%
19-Apr-2024 18:00Moderate Rain24°C2 mph, N100%4187m1008hPa100%
19-Apr-2024 21:00Heavy Intensity Rain24°C4 mph, N100%5677m1010hPa99%
20-Apr-2024 00:00Light Rain24°C2 mph, NW100%10000m1011hPa98%
20-Apr-2024 03:00Overcast Clouds29°C4 mph, NW100%10000m1008hPa71%
20-Apr-2024 06:00Overcast Clouds30°C4 mph, W100%10000m1006hPa69%
20-Apr-2024 09:00Overcast Clouds26°C2 mph, SW100%10000m1007hPa92%
20-Apr-2024 12:00Overcast Clouds25°C0 mph, E100%10000m1009hPa94%
20-Apr-2024 15:00Overcast Clouds24°C2 mph, E100%10000m1008hPa97%
20-Apr-2024 18:00Overcast Clouds24°C2 mph, E100%10000m1008hPa98%
20-Apr-2024 21:00Overcast Clouds24°C2 mph, E89%10000m1009hPa96%
21-Apr-2024 00:00Overcast Clouds30°C2 mph, E94%10000m1010hPa72%
21-Apr-2024 03:00Light Rain33°C2 mph, E100%10000m1006hPa60%
21-Apr-2024 06:00Light Rain30°C4 mph, SE100%10000m1005hPa80%
21-Apr-2024 09:00Light Rain26°C4 mph, SE100%10000m1007hPa93%
21-Apr-2024 12:00Overcast Clouds25°C2 mph, SE100%10000m1009hPa96%
21-Apr-2024 15:00Overcast Clouds24°C2 mph, E100%10000m1008hPa98%
21-Apr-2024 18:00Overcast Clouds24°C2 mph, E99%10000m1007hPa99%
21-Apr-2024 21:00Broken Clouds24°C2 mph, E83%10000m1009hPa98%
22-Apr-2024 00:00Overcast Clouds30°C4 mph, E87%10000m1009hPa69%
22-Apr-2024 03:00Light Rain34°C4 mph, SE99%10000m1006hPa54%
22-Apr-2024 06:00Light Rain31°C4 mph, SE99%10000m1004hPa66%
22-Apr-2024 09:00Overcast Clouds26°C4 mph, SE100%10000m1007hPa91%
22-Apr-2024 12:00Light Rain25°C2 mph, SE99%10000m1009hPa96%
22-Apr-2024 15:00Overcast Clouds24°C2 mph, SE100%10000m1008hPa99%
22-Apr-2024 18:00Overcast Clouds24°C2 mph, SE100%10000m1007hPa99%
22-Apr-2024 21:00Light Rain25°C2 mph, E100%10000m1009hPa99%
23-Apr-2024 00:00Overcast Clouds29°C2 mph, E100%10000m1010hPa79%
23-Apr-2024 03:00Light Rain30°C4 mph, SE100%4691m1007hPa82%
23-Apr-2024 06:00Light Rain31°C4 mph, SE100%10000m1005hPa67%
23-Apr-2024 09:00Light Rain26°C4 mph, SE100%10000m1007hPa93%
23-Apr-2024 12:00Overcast Clouds25°C2 mph, SE100%10000m1009hPa96%
23-Apr-2024 15:00Light Rain24°C2 mph, SE100%10000m1008hPa98%
23-Apr-2024 18:00Broken Clouds24°C2 mph, SE81%10000m1008hPa99%
23-Apr-2024 21:00Broken Clouds24°C2 mph, E66%10000m1009hPa98%
24-Apr-2024 00:00Broken Clouds30°C4 mph, SE59%10000m1010hPa70%
24-Apr-2024 03:00Light Rain29°C4 mph, SE96%9217m1007hPa85%